Time;durP1;ratioP1;P1;durP2;ratioP2;P2;SDS_P1;SDS_P2;PMS_P1;PMS_P2;Temp;Humidity;BMP_temperature;BMP_pressure;BME280_temperature;BME280_humidity;BME280_pressure;Samples;Min_cycle;Max_cycle;Signal;HPM_P1;HPM_P2
2024/04/26 00:00:52;;;;;;;;;;;19.00;57.90;;;;;;1535564;75;1103;-67
2024/04/26 00:02:54;;;;;;;;;;;19.00;57.90;;;;;;1540882;75;1934;-67
2024/04/26 00:04:55;;;;;;;;;;;19.00;57.90;;;;;;1542407;76;734;-67
2024/04/26 00:06:57;;;;;;;;;;;19.00;58.00;;;;;;1539328;75;1635;-67
2024/04/26 00:08:59;;;;;;;;;;;18.90;58.00;;;;;;1539486;76;669;-68
2024/04/26 00:11:05;;;;;;;;;;;18.90;58.00;;;;;;1536600;75;1137;-68
2024/04/26 00:13:06;;;;;;;;;;;19.00;58.00;;;;;;1536280;75;1908;-66
2024/04/26 00:15:08;;;;;;;;;;;19.00;58.00;;;;;;1527388;75;676;-67
2024/04/26 00:17:10;;;;;;;;;;;18.90;58.10;;;;;;1535475;75;740;-68
2024/04/26 00:19:12;;;;;;;;;;;19.00;58.10;;;;;;1544626;75;1346;-66
2024/04/26 00:21:14;;;;;;;;;;;19.00;58.10;;;;;;1530337;75;1141;-68
2024/04/26 00:23:16;;;;;;;;;;;18.90;58.10;;;;;;1541158;75;1935;-69
2024/04/26 00:25:18;;;;;;;;;;;19.00;58.10;;;;;;1528885;75;777;-68
2024/04/26 00:27:19;;;;;;;;;;;19.00;58.20;;;;;;1546343;75;816;-67
2024/04/26 00:29:21;;;;;;;;;;;19.00;58.20;;;;;;1532572;75;820;-66
2024/04/26 00:31:23;;;;;;;;;;;19.00;58.20;;;;;;1542010;75;1095;-69
2024/04/26 00:33:25;;;;;;;;;;;19.00;58.20;;;;;;1549190;75;1357;-67
2024/04/26 00:35:27;;;;;;;;;;;19.00;58.20;;;;;;1532357;76;653;-67
2024/04/26 00:37:29;;;;;;;;;;;19.00;58.30;;;;;;1532835;75;678;-67
2024/04/26 00:39:31;;;;;;;;;;;19.00;58.30;;;;;;1536613;76;679;-69
2024/04/26 00:41:32;;;;;;;;;;;19.00;58.30;;;;;;1536529;75;1212;-65
2024/04/26 00:43:34;;;;;;;;;;;19.00;58.30;;;;;;1532639;75;1945;-67
2024/04/26 00:45:36;;;;;;;;;;;19.00;58.30;;;;;;1526815;75;721;-68
2024/04/26 00:47:38;;;;;;;;;;;19.00;58.40;;;;;;1541875;75;1586;-69
2024/04/26 00:49:40;;;;;;;;;;;19.00;58.30;;;;;;1548708;75;652;-67
2024/04/26 00:51:45;;;;;;;;;;;19.00;58.30;;;;;;1538331;75;1170;-68
2024/04/26 00:53:47;;;;;;;;;;;19.00;58.40;;;;;;1532207;75;779;-69
2024/04/26 00:55:49;;;;;;;;;;;19.00;58.40;;;;;;1532069;75;713;-67
2024/04/26 00:57:51;;;;;;;;;;;19.00;58.50;;;;;;1527217;75;606;-68
2024/04/26 00:59:53;;;;;;;;;;;19.70;58.90;;;;;;1543964;75;727;-68
2024/04/26 01:01:55;;;;;;;;;;;19.00;58.50;;;;;;1533244;75;1575;-67
2024/04/26 01:03:56;;;;;;;;;;;19.00;58.50;;;;;;1540837;75;1951;-69
2024/04/26 01:05:58;;;;;;;;;;;19.00;58.50;;;;;;1539211;75;668;-68
2024/04/26 01:08:00;;;;;;;;;;;19.00;58.50;;;;;;1539255;76;669;-67
2024/04/26 01:10:02;;;;;;;;;;;19.00;58.50;;;;;;1531371;75;710;-66
2024/04/26 01:12:04;;;;;;;;;;;18.90;58.40;;;;;;1526959;76;1137;-67
2024/04/26 01:14:07;;;;;;;;;;;19.00;58.50;;;;;;1543522;76;660;-67
2024/04/26 01:16:08;;;;;;;;;;;19.00;58.50;;;;;;1535304;75;1589;-67
2024/04/26 01:18:10;;;;;;;;;;;19.00;58.50;;;;;;1541578;75;664;-67
2024/04/26 01:20:15;;;;;;;;;;;19.00;58.40;;;;;;1534763;76;685;-67
2024/04/26 01:22:19;;;;;;;;;;;19.00;58.40;;;;;;1532047;75;1946;-67
2024/04/26 01:24:21;;;;;;;;;;;19.00;58.40;;;;;;1521646;75;1738;-68
2024/04/26 01:26:22;;;;;;;;;;;19.00;58.40;;;;;;1533154;75;778;-67
2024/04/26 01:28:24;;;;;;;;;;;19.00;58.40;;;;;;1526540;75;804;-68
2024/04/26 01:30:26;;;;;;;;;;;19.00;58.40;;;;;;1530633;75;1543;-69
2024/04/26 01:32:28;;;;;;;;;;;19.00;58.40;;;;;;1526704;76;1081;-66
2024/04/26 01:34:30;;;;;;;;;;;19.00;58.40;;;;;;1533788;75;651;-68
2024/04/26 01:36:32;;;;;;;;;;;19.00;58.40;;;;;;1533121;75;704;-68
2024/04/26 01:38:34;;;;;;;;;;;19.00;58.40;;;;;;1540402;75;691;-68
2024/04/26 01:40:36;;;;;;;;;;;19.00;58.40;;;;;;1529761;75;1209;-67
2024/04/26 01:42:37;;;;;;;;;;;19.00;58.40;;;;;;1530978;75;2073;-67
2024/04/26 01:44:39;;;;;;;;;;;19.00;58.40;;;;;;1534002;75;1550;-68
2024/04/26 01:46:41;;;;;;;;;;;19.00;58.40;;;;;;1522280;75;776;-68
2024/04/26 01:48:43;;;;;;;;;;;19.00;58.40;;;;;;1530823;75;650;-68
2024/04/26 01:50:45;;;;;;;;;;;19.00;58.40;;;;;;1535806;75;1160;-68
2024/04/26 01:52:48;;;;;;;;;;;19.00;58.40;;;;;;1529940;75;720;-69
2024/04/26 01:54:50;;;;;;;;;;;19.00;58.30;;;;;;1530387;75;727;-69
2024/04/26 01:56:52;;;;;;;;;;;19.00;58.40;;;;;;1540032;75;697;-68
2024/04/26 01:58:54;;;;;;;;;;;19.00;58.40;;;;;;1531015;75;1576;-67
2024/04/26 02:00:56;;;;;;;;;;;19.00;58.40;;;;;;1533352;76;1172;-67
2024/04/26 02:02:58;;;;;;;;;;;19.00;58.40;;;;;;1540054;75;1933;-66
2024/04/26 02:04:59;;;;;;;;;;;19.00;58.40;;;;;;1542351;75;642;-67
2024/04/26 02:07:01;;;;;;;;;;;19.00;58.40;;;;;;1531045;75;706;-68
2024/04/26 02:09:03;;;;;;;;;;;19.00;58.40;;;;;;1537558;75;660;-67
2024/04/26 02:11:05;;;;;;;;;;;19.00;58.40;;;;;;1532984;75;1102;-67
2024/04/26 02:13:07;;;;;;;;;;;19.00;58.40;;;;;;1531216;75;1596;-68
2024/04/26 02:15:09;;;;;;;;;;;19.00;58.40;;;;;;1528299;75;685;-68
2024/04/26 02:17:12;;;;;;;;;;;19.00;58.40;;;;;;1536727;75;678;-68
2024/04/26 02:19:14;;;;;;;;;;;19.00;58.40;;;;;;1531660;75;533;-68
2024/04/26 02:21:16;;;;;;;;;;;19.00;58.40;;;;;;1535626;75;1158;-68
2024/04/26 02:23:18;;;;;;;;;;;19.00;58.40;;;;;;1545041;75;1952;-69
2024/04/26 02:25:20;;;;;;;;;;;19.00;58.40;;;;;;1525651;75;630;-68
2024/04/26 02:27:21;;;;;;;;;;;19.00;58.40;;;;;;1537042;75;1547;-66
2024/04/26 02:29:23;;;;;;;;;;;19.00;58.40;;;;;;1537716;75;785;-67
2024/04/26 02:31:25;;;;;;;;;;;19.00;58.40;;;;;;1546207;75;1136;-67
2024/04/26 02:33:29;;;;;;;;;;;19.00;58.40;;;;;;1546703;75;737;-68
2024/04/26 02:35:31;;;;;;;;;;;19.00;58.40;;;;;;1540422;75;1647;-69
2024/04/26 02:37:32;;;;;;;;;;;19.00;58.40;;;;;;1520883;75;643;-68
2024/04/26 02:39:34;;;;;;;;;;;19.00;58.40;;;;;;1546476;75;775;-68
2024/04/26 02:41:36;;;;;;;;;;;19.00;58.40;;;;;;1551479;75;1426;-68
2024/04/26 02:43:40;;;;;;;;;;;19.00;58.40;;;;;;1542229;75;1930;-66
2024/04/26 02:45:42;;;;;;;;;;;19.00;58.50;;;;;;1532689;75;765;-69
2024/04/26 02:47:44;;;;;;;;;;;19.00;58.40;;;;;;1547062;75;671;-66
2024/04/26 02:49:48;;;;;;;;;;;19.00;58.50;;;;;;1541870;75;752;-69
2024/04/26 02:51:49;;;;;;;;;;;19.00;58.50;;;;;;1526905;75;1655;-69
2024/04/26 02:53:51;;;;;;;;;;;19.00;58.40;;;;;;1535954;75;675;-69
2024/04/26 02:55:53;;;;;;;;;;;19.00;58.40;;;;;;1534686;75;1333;-68
2024/04/26 02:57:56;;;;;;;;;;;19.00;58.40;;;;;;1537876;75;741;-69
2024/04/26 02:59:58;;;;;;;;;;;19.00;58.40;;;;;;1541595;75;678;-67
2024/04/26 03:01:59;;;;;;;;;;;19.00;58.40;;;;;;1538637;75;1099;-66
2024/04/26 03:04:02;;;;;;;;;;;19.00;58.50;;;;;;1538362;75;1952;-67
2024/04/26 03:06:09;;;;;;;;;;;19.00;58.50;;;;;;1529480;75;757;-71
2024/04/26 03:08:11;;;;;;;;;;;19.00;58.50;;;;;;1541263;75;1576;-67
2024/04/26 03:10:13;;;;;;;;;;;19.00;58.50;;;;;;1536640;76;812;-69
2024/04/26 03:12:16;;;;;;;;;;;19.00;58.50;;;;;;1543447;75;1127;-68
2024/04/26 03:14:18;;;;;;;;;;;19.00;58.50;;;;;;1533256;75;951;-68
2024/04/26 03:16:20;;;;;;;;;;;19.00;58.50;;;;;;1536467;75;791;-66
2024/04/26 03:18:22;;;;;;;;;;;19.00;58.50;;;;;;1531282;75;762;-68
2024/04/26 03:20:24;;;;;;;;;;;19.00;58.50;;;;;;1537177;75;679;-68
2024/04/26 03:22:26;;;;;;;;;;;19.00;58.50;;;;;;1541193;75;1527;-68
2024/04/26 03:24:28;;;;;;;;;;;19.00;58.50;;;;;;1530350;75;1925;-68
2024/04/26 03:26:30;;;;;;;;;;;19.00;58.50;;;;;;1540453;75;693;-66
2024/04/26 03:28:32;;;;;;;;;;;19.00;58.50;;;;;;1533820;75;758;-70
2024/04/26 03:30:34;;;;;;;;;;;19.00;58.50;;;;;;1535964;76;808;-66
2024/04/26 03:32:36;;;;;;;;;;;19.00;58.50;;;;;;1542915;75;638;-66
2024/04/26 03:34:38;;;;;;;;;;;19.00;58.60;;;;;;1536883;75;812;-65
2024/04/26 03:36:40;;;;;;;;;;;19.10;58.60;;;;;;1544049;76;1591;-66
2024/04/26 03:38:42;;;;;;;;;;;19.00;58.50;;;;;;1532351;75;673;-65
2024/04/26 03:40:44;;;;;;;;;;;19.00;58.50;;;;;;1542273;75;1186;-67
2024/04/26 03:42:46;;;;;;;;;;;19.00;58.50;;;;;;1536993;75;676;-66
2024/04/26 03:44:47;;;;;;;;;;;19.00;58.50;;;;;;1536170;75;1930;-66
2024/04/26 03:46:49;;;;;;;;;;;19.00;58.50;;;;;;1542519;75;732;-68
2024/04/26 03:48:51;;;;;;;;;;;19.00;58.50;;;;;;1539833;75;660;-67
2024/04/26 03:50:53;;;;;;;;;;;19.00;58.60;;;;;;1539769;75;1532;-68
2024/04/26 03:52:55;;;;;;;;;;;19.10;58.60;;;;;;1535317;75;788;-68
2024/04/26 03:54:57;;;;;;;;;;;19.00;58.50;;;;;;1531618;75;812;-65
2024/04/26 03:56:59;;;;;;;;;;;19.00;58.50;;;;;;1543459;75;765;-68
2024/04/26 03:59:01;;;;;;;;;;;19.00;58.60;;;;;;1541830;75;752;-68
2024/04/26 04:01:02;;;;;;;;;;;19.00;58.60;;;;;;1534922;75;1151;-68
2024/04/26 04:03:04;;;;;;;;;;;19.00;58.60;;;;;;1537666;75;686;-66
2024/04/26 04:05:06;;;;;;;;;;;19.00;58.60;;;;;;1538093;75;1949;-66
2024/04/26 04:07:08;;;;;;;;;;;19.00;58.70;;;;;;1533624;75;732;-64
2024/04/26 04:09:10;;;;;;;;;;;19.00;58.70;;;;;;1529575;75;860;-68
2024/04/26 04:11:12;;;;;;;;;;;19.00;58.80;;;;;;1526160;75;1149;-64
2024/04/26 04:13:15;;;;;;;;;;;19.00;58.90;;;;;;1530067;75;724;-66
2024/04/26 04:15:17;;;;;;;;;;;19.00;59.00;;;;;;1533522;76;1866;-68
2024/04/26 04:17:19;;;;;;;;;;;19.10;59.20;;;;;;1530301;75;727;-67
2024/04/26 04:19:21;;;;;;;;;;;19.10;59.10;;;;;;1530431;75;1559;-67
2024/04/26 04:21:23;;;;;;;;;;;19.10;59.10;;;;;;1535153;75;1146;-67
2024/04/26 04:23:25;;;;;;;;;;;19.10;59.00;;;;;;1535360;75;1949;-68
2024/04/26 04:25:27;;;;;;;;;;;19.10;59.00;;;;;;1531023;75;655;-66
2024/04/26 04:27:29;;;;;;;;;;;19.10;59.00;;;;;;1546167;76;683;-68
2024/04/26 04:29:30;;;;;;;;;;;19.00;58.80;;;;;;1536134;75;649;-68
2024/04/26 04:31:32;;;;;;;;;;;19.10;58.90;;;;;;1532653;75;1150;-67
2024/04/26 04:33:34;;;;;;;;;;;19.10;58.90;;;;;;1534788;75;1611;-69
2024/04/26 04:35:36;;;;;;;;;;;19.10;58.80;;;;;;1531315;75;690;-67
2024/04/26 04:37:38;;;;;;;;;;;19.10;58.90;;;;;;1531909;75;691;-68
2024/04/26 04:39:40;;;;;;;;;;;19.50;59.00;;;;;;1536117;75;706;-69
2024/04/26 04:41:42;;;;;;;;;;;19.00;58.60;;;;;;1534972;75;1286;-65
2024/04/26 04:43:44;;;;;;;;;;;19.00;58.60;;;;;;1533809;75;1935;-70
2024/04/26 04:45:45;;;;;;;;;;;19.10;58.70;;;;;;1542988;75;699;-68
2024/04/26 04:47:52;;;;;;;;;;;19.10;58.70;;;;;;1534636;75;1575;-65
2024/04/26 04:49:51;;;;;;;;;;;19.10;58.70;;;;;;1535028;75;1382;-70
2024/04/26 04:51:53;;;;;;;;;;;19.10;58.70;;;;;;1531061;75;1119;-68
2024/04/26 04:53:55;;;;;;;;;;;19.10;58.70;;;;;;1532677;75;663;-68
2024/04/26 04:55:57;;;;;;;;;;;19.00;58.50;;;;;;1544325;75;656;-71
2024/04/26 04:57:58;;;;;;;;;;;19.10;58.60;;;;;;1545474;75;752;-69
2024/04/26 05:00:04;;;;;;;;;;;19.00;58.50;;;;;;1546113;75;747;-69
2024/04/26 05:02:04;;;;;;;;;;;19.00;58.40;;;;;;1540255;75;1544;-69
2024/04/26 05:04:06;;;;;;;;;;;19.00;58.40;;;;;;1535382;75;1907;-68
2024/04/26 05:06:08;;;;;;;;;;;19.00;58.40;;;;;;1532384;75;644;-69
2024/04/26 05:08:10;;;;;;;;;;;19.00;58.40;;;;;;1534299;75;801;-70
2024/04/26 05:10:11;;;;;;;;;;;19.00;58.40;;;;;;1532175;75;739;-69
2024/04/26 05:12:13;;;;;;;;;;;19.00;58.40;;;;;;1532064;75;1134;-67
2024/04/26 05:14:15;;;;;;;;;;;19.00;58.40;;;;;;1537267;75;683;-70
2024/04/26 05:16:17;;;;;;;;;;;19.00;58.30;;;;;;1529155;75;1579;-67
2024/04/26 05:18:19;;;;;;;;;;;19.90;58.70;;;;;;1533891;75;634;-67
2024/04/26 05:20:21;;;;;;;;;;;19.00;58.30;;;;;;1540610;75;720;-67
2024/04/26 05:22:23;;;;;;;;;;;19.00;58.30;;;;;;1548620;75;1134;-67
2024/04/26 05:24:25;;;;;;;;;;;19.00;58.30;;;;;;1535332;75;1949;-70
2024/04/26 05:26:27;;;;;;;;;;;19.00;58.30;;;;;;1543513;75;650;-69
2024/04/26 05:28:29;;;;;;;;;;;19.00;58.30;;;;;;1539451;75;691;-68
2024/04/26 05:30:30;;;;;;;;;;;19.00;58.30;;;;;;1535090;75;1566;-69
2024/04/26 05:32:32;;;;;;;;;;;19.00;58.30;;;;;;1541439;75;1185;-67
2024/04/26 05:34:34;;;;;;;;;;;19.00;58.20;;;;;;1533414;75;680;-68
2024/04/26 05:36:36;;;;;;;;;;;19.00;58.20;;;;;;1541199;75;770;-68
2024/04/26 05:38:38;;;;;;;;;;;19.10;58.40;;;;;;1537861;75;710;-66
2024/04/26 05:40:41;;;;;;;;;;;19.00;58.20;;;;;;1543126;75;1208;-68
2024/04/26 05:42:43;;;;;;;;;;;19.10;58.30;;;;;;1540342;75;1530;-69
2024/04/26 05:44:45;;;;;;;;;;;19.10;58.30;;;;;;1546370;75;1941;-68
2024/04/26 05:46:47;;;;;;;;;;;19.10;58.40;;;;;;1538581;75;751;-72
2024/04/26 05:48:49;;;;;;;;;;;19.10;58.30;;;;;;1531038;75;684;-70
2024/04/26 05:50:51;;;;;;;;;;;19.00;58.10;;;;;;1535292;75;1166;-69
2024/04/26 05:52:53;;;;;;;;;;;19.10;58.20;;;;;;1529893;75;734;-72
2024/04/26 05:54:54;;;;;;;;;;;19.10;58.20;;;;;;1536670;75;721;-71
2024/04/26 05:56:56;;;;;;;;;;;19.60;58.30;;;;;;1533392;75;1548;-68
2024/04/26 05:58:58;;;;;;;;;;;19.50;58.30;;;;;;1537381;75;742;-69
2024/04/26 06:01:00;;;;;;;;;;;19.10;58.10;;;;;;1534989;75;1132;-68
2024/04/26 06:03:02;;;;;;;;;;;19.10;58.10;;;;;;1533137;75;691;-68
2024/04/26 06:05:09;;;;;;;;;;;19.10;58.10;;;;;;1536714;76;1940;-68
2024/04/26 06:07:08;;;;;;;;;;;19.00;58.00;;;;;;1533649;75;1630;-69
2024/04/26 06:09:10;;;;;;;;;;;19.50;58.30;;;;;;1532034;75;719;-70
2024/04/26 06:11:13;;;;;;;;;;;19.10;58.10;;;;;;1535744;75;1552;-68
2024/04/26 06:13:15;;;;;;;;;;;19.10;58.10;;;;;;1534844;75;1595;-67
2024/04/26 06:15:17;;;;;;;;;;;19.00;57.90;;;;;;1542501;75;663;-67
2024/04/26 06:17:19;;;;;;;;;;;19.10;58.00;;;;;;1529923;75;721;-70
2024/04/26 06:19:20;;;;;;;;;;;19.00;57.90;;;;;;1531429;75;727;-70
2024/04/26 06:21:22;;;;;;;;;;;19.10;58.00;;;;;;1547459;75;1158;-70
2024/04/26 06:23:24;;;;;;;;;;;19.10;58.00;;;;;;1535650;75;687;-69
2024/04/26 06:25:26;;;;;;;;;;;19.10;58.00;;;;;;1533615;75;1955;-68
2024/04/26 06:27:28;;;;;;;;;;;19.10;58.00;;;;;;1534071;75;693;-68
2024/04/26 06:29:30;;;;;;;;;;;19.10;58.00;;;;;;1533101;76;696;-67
2024/04/26 06:31:32;;;;;;;;;;;19.10;58.00;;;;;;1537264;75;1130;-68
2024/04/26 06:33:34;;;;;;;;;;;19.10;58.00;;;;;;1542907;75;647;-68
2024/04/26 06:35:35;;;;;;;;;;;19.10;58.00;;;;;;1530399;75;663;-70
2024/04/26 06:37:37;;;;;;;;;;;19.00;57.90;;;;;;1544470;75;724;-67
2024/04/26 06:39:39;;;;;;;;;;;19.00;58.00;;;;;;1534307;75;1580;-67
2024/04/26 06:41:41;;;;;;;;;;;19.10;58.10;;;;;;1541002;75;1182;-66
2024/04/26 06:43:43;;;;;;;;;;;19.10;58.10;;;;;;1534861;75;708;-67
2024/04/26 06:45:45;;;;;;;;;;;19.00;58.00;;;;;;1534552;75;1924;-70
2024/04/26 06:47:47;;;;;;;;;;;19.10;58.10;;;;;;1533779;75;635;-67
2024/04/26 06:49:49;;;;;;;;;;;19.10;58.10;;;;;;1534638;75;742;-67
2024/04/26 06:51:50;;;;;;;;;;;19.10;58.10;;;;;;1532989;75;1139;-68
2024/04/26 06:53:52;;;;;;;;;;;19.10;58.10;;;;;;1535428;75;1536;-67
2024/04/26 06:55:54;;;;;;;;;;;19.10;58.10;;;;;;1534258;75;738;-68
2024/04/26 06:57:56;;;;;;;;;;;19.10;58.10;;;;;;1530499;75;712;-68
2024/04/26 06:59:58;;;;;;;;;;;19.10;58.10;;;;;;1535083;75;787;-67
2024/04/26 07:02:01;;;;;;;;;;;19.10;58.10;;;;;;1535639;75;1116;-68
2024/04/26 07:04:03;;;;;;;;;;;19.10;58.10;;;;;;1535910;75;731;-69
2024/04/26 07:06:05;;;;;;;;;;;19.10;58.10;;;;;;1539951;75;1943;-68
2024/04/26 07:08:07;;;;;;;;;;;19.10;58.10;;;;;;1529371;75;1540;-69
2024/04/26 07:10:09;;;;;;;;;;;19.10;58.10;;;;;;1534928;75;711;-68
2024/04/26 07:12:12;;;;;;;;;;;19.20;58.10;;;;;;1536546;75;1131;-67
2024/04/26 07:14:13;;;;;;;;;;;19.20;58.10;;;;;;1539004;75;704;-68
2024/04/26 07:16:15;;;;;;;;;;;19.10;58.10;;;;;;1526606;75;695;-68
2024/04/26 07:18:17;;;;;;;;;;;19.90;58.40;;;;;;1530361;75;639;-68
2024/04/26 07:20:19;;;;;;;;;;;19.20;58.10;;;;;;1535715;75;745;-68
2024/04/26 07:22:21;;;;;;;;;;;19.20;58.10;;;;;;1531920;75;1381;-68
2024/04/26 07:24:23;;;;;;;;;;;19.10;58.10;;;;;;1537877;75;708;-68
2024/04/26 07:26:26;;;;;;;;;;;19.90;58.40;;;;;;1530281;76;1947;-68
2024/04/26 07:28:28;;;;;;;;;;;19.10;58.10;;;;;;1528765;75;725;-69
2024/04/26 07:30:30;;;;;;;;;;;19.10;58.10;;;;;;1530186;75;869;-67
2024/04/26 07:32:32;;;;;;;;;;;19.20;58.00;;;;;;1544712;75;1123;-66
2024/04/26 07:34:34;;;;;;;;;;;19.20;58.00;;;;;;1539210;75;661;-69
2024/04/26 07:36:37;;;;;;;;;;;19.20;58.00;;;;;;1534759;76;1592;-68
2024/04/26 07:38:39;;;;;;;;;;;19.20;58.00;;;;;;1536646;75;1971;-68
2024/04/26 07:40:41;;;;;;;;;;;19.20;58.00;;;;;;1542821;75;1154;-68
2024/04/26 07:42:43;;;;;;;;;;;19.10;58.00;;;;;;1528205;75;743;-68
2024/04/26 07:44:45;;;;;;;;;;;19.20;57.90;;;;;;1538162;75;1948;-68
2024/04/26 07:46:47;;;;;;;;;;;19.10;58.00;;;;;;1535732;75;694;-68
2024/04/26 07:48:49;;;;;;;;;;;19.70;58.20;;;;;;1532070;75;809;-70
2024/04/26 07:50:51;;;;;;;;;;;19.20;57.90;;;;;;1541018;75;1668;-67
2024/04/26 07:52:53;;;;;;;;;;;19.20;57.90;;;;;;1534220;75;680;-69
2024/04/26 07:54:55;;;;;;;;;;;19.20;57.90;;;;;;1540093;75;635;-68
2024/04/26 07:56:57;;;;;;;;;;;19.20;57.90;;;;;;1534015;75;706;-69
2024/04/26 07:58:59;;;;;;;;;;;19.20;57.80;;;;;;1531977;75;643;-69
2024/04/26 08:01:00;;;;;;;;;;;19.20;57.80;;;;;;1547640;75;1130;-69
2024/04/26 08:03:02;;;;;;;;;;;19.10;57.80;;;;;;1538180;75;649;-68
2024/04/26 08:05:04;;;;;;;;;;;19.20;57.80;;;;;;1537756;75;1941;-69
2024/04/26 08:07:09;;;;;;;;;;;19.10;57.80;;;;;;1532908;75;819;-68
2024/04/26 08:09:10;;;;;;;;;;;19.10;57.70;;;;;;1539248;75;1706;-70
2024/04/26 08:11:12;;;;;;;;;;;19.10;57.70;;;;;;1539346;75;1125;-68
2024/04/26 08:13:14;;;;;;;;;;;19.10;57.80;;;;;;1534521;75;766;-66
2024/04/26 08:15:15;;;;;;;;;;;19.10;57.70;;;;;;1538960;75;749;-67
2024/04/26 08:17:17;;;;;;;;;;;19.10;57.70;;;;;;1535934;75;666;-67
2024/04/26 08:19:21;;;;;;;;;;;19.10;57.60;;;;;;1531120;75;1566;-69
2024/04/26 08:21:22;;;;;;;;;;;19.10;57.60;;;;;;1538476;76;1153;-68
2024/04/26 08:23:24;;;;;;;;;;;19.10;57.60;;;;;;1531805;75;778;-68
2024/04/26 08:25:27;;;;;;;;;;;19.10;57.70;;;;;;1539301;75;1938;-66
2024/04/26 08:27:29;;;;;;;;;;;19.10;57.70;;;;;;1542031;75;683;-67
2024/04/26 08:29:33;;;;;;;;;;;19.10;57.60;;;;;;1540488;75;695;-68
2024/04/26 08:31:35;;;;;;;;;;;19.10;57.60;;;;;;1540999;75;1631;-68
2024/04/26 08:33:37;;;;;;;;;;;19.10;57.60;;;;;;1529391;75;824;-70
2024/04/26 08:35:39;;;;;;;;;;;19.10;57.70;;;;;;1535918;75;866;-69
2024/04/26 08:37:41;;;;;;;;;;;19.10;57.70;;;;;;1541065;75;845;-67
2024/04/26 08:39:43;;;;;;;;;;;19.10;57.70;;;;;;1534215;75;725;-67
2024/04/26 08:41:45;;;;;;;;;;;19.20;57.60;;;;;;1531904;75;1145;-66
2024/04/26 08:43:47;;;;;;;;;;;19.10;57.60;;;;;;1536381;75;667;-68
2024/04/26 08:45:49;;;;;;;;;;;19.10;57.70;;;;;;1537169;75;1940;-70
2024/04/26 08:47:51;;;;;;;;;;;19.20;57.70;;;;;;1533945;75;683;-68
2024/04/26 08:49:54;;;;;;;;;;;19.20;57.70;;;;;;1535854;75;712;-69
2024/04/26 08:51:59;;;;;;;;;;;19.10;57.70;;;;;;1542690;75;1139;-67
2024/04/26 08:54:01;;;;;;;;;;;19.20;57.70;;;;;;1534056;75;705;-68
2024/04/26 08:56:06;;;;;;;;;;;19.20;57.80;;;;;;1532242;75;663;-68
2024/04/26 08:58:08;;;;;;;;;;;19.20;57.80;;;;;;1535094;75;1658;-69
2024/04/26 09:00:13;;;;;;;;;;;19.20;57.70;;;;;;1546283;75;1519;-69
2024/04/26 09:02:16;;;;;;;;;;;19.20;57.80;;;;;;1547184;76;1142;-69
2024/04/26 09:04:18;;;;;;;;;;;19.20;57.70;;;;;;1532776;75;806;-70
2024/04/26 09:06:20;;;;;;;;;;;19.20;57.70;;;;;;1535376;75;1941;-69
2024/04/26 09:08:22;;;;;;;;;;;19.10;57.60;;;;;;1524967;75;739;-70
2024/04/26 09:10:24;;;;;;;;;;;19.10;57.60;;;;;;1538674;75;683;-68
2024/04/26 09:12:25;;;;;;;;;;;19.20;57.70;;;;;;1539000;75;1262;-67
2024/04/26 09:14:29;;;;;;;;;;;19.20;57.60;;;;;;1543275;75;1583;-69
2024/04/26 09:16:32;;;;;;;;;;;19.20;57.60;;;;;;1537053;76;1464;-71
2024/04/26 09:18:34;;;;;;;;;;;19.20;57.70;;;;;;1530543;75;662;-69
2024/04/26 09:20:36;;;;;;;;;;;19.20;57.60;;;;;;1535850;75;685;-71
2024/04/26 09:22:43;;;;;;;;;;;19.30;57.70;;;;;;1545766;75;665;-69
2024/04/26 09:24:45;;;;;;;;;;;19.90;57.90;;;;;;1524286;75;756;-68
2024/04/26 09:26:47;;;;;;;;;;;19.20;57.60;;;;;;1545038;75;1931;-69
2024/04/26 09:28:49;;;;;;;;;;;19.80;57.90;;;;;;1537226;75;1583;-69
2024/04/26 09:30:50;;;;;;;;;;;19.90;58.00;;;;;;1529339;75;1146;-69
2024/04/26 09:32:52;;;;;;;;;;;19.20;57.60;;;;;;1541292;76;773;-69
2024/04/26 09:34:54;;;;;;;;;;;19.30;57.70;;;;;;1544566;75;657;-69
2024/04/26 09:36:56;;;;;;;;;;;19.20;57.60;;;;;;1548731;75;682;-71
2024/04/26 09:38:58;;;;;;;;;;;19.20;57.60;;;;;;1545168;75;713;-70
2024/04/26 09:41:00;;;;;;;;;;;19.30;57.60;;;;;;1540097;75;1146;-68
2024/04/26 09:43:02;;;;;;;;;;;19.20;57.50;;;;;;1530514;75;1477;-70
2024/04/26 09:45:04;;;;;;;;;;;19.20;57.50;;;;;;1533504;75;723;-68
2024/04/26 09:47:06;;;;;;;;;;;19.20;57.50;;;;;;1545965;75;1928;-66
2024/04/26 09:49:08;;;;;;;;;;;19.20;57.50;;;;;;1535053;75;767;-66
2024/04/26 09:51:11;;;;;;;;;;;19.30;57.60;;;;;;1531457;75;1203;-67
2024/04/26 09:53:13;;;;;;;;;;;19.30;57.60;;;;;;1529749;75;748;-67
2024/04/26 09:55:15;;;;;;;;;;;19.20;57.50;;;;;;1533999;75;777;-68
2024/04/26 09:57:16;;;;;;;;;;;19.20;57.50;;;;;;1535055;75;1588;-68
2024/04/26 09:59:18;;;;;;;;;;;19.20;57.50;;;;;;1539528;75;751;-68
2024/04/26 10:01:20;;;;;;;;;;;19.30;57.50;;;;;;1535402;75;1145;-68
2024/04/26 10:03:22;;;;;;;;;;;19.20;57.50;;;;;;1531586;75;668;-69
2024/04/26 10:05:24;;;;;;;;;;;19.20;57.40;;;;;;1534467;75;757;-67
2024/04/26 10:07:26;;;;;;;;;;;19.30;57.50;;;;;;1523519;75;1927;-69
2024/04/26 10:09:28;;;;;;;;;;;19.30;57.50;;;;;;1532248;75;668;-67
2024/04/26 10:11:30;;;;;;;;;;;19.30;57.50;;;;;;1528897;76;1586;-67
2024/04/26 10:13:32;;;;;;;;;;;19.20;57.40;;;;;;1533509;75;609;-67
2024/04/26 10:15:35;;;;;;;;;;;19.20;57.40;;;;;;1511235;77;1160;-67
2024/04/26 10:17:48;;;;;;;;;;;19.30;57.50;;;;;;1528972;75;670;-66
2024/04/26 10:19:51;;;;;;;;;;;19.20;57.40;;;;;;1530379;75;722;-69
2024/04/26 10:21:54;;;;;;;;;;;19.30;56.80;;;;;;1529591;75;1131;-69
2024/04/26 10:23:57;;;;;;;;;;;19.30;57.40;;;;;;1531629;75;2093;-67
2024/04/26 10:26:09;;;;;;;;;;;19.30;57.40;;;;;;1529796;75;1898;-68
2024/04/26 10:28:11;;;;;;;;;;;19.20;57.40;;;;;;1529628;75;651;-67
2024/04/26 10:30:14;;;;;;;;;;;19.30;56.80;;;;;;1529998;75;701;-67
2024/04/26 10:32:16;;;;;;;;;;;19.20;56.70;;;;;;1538389;75;1278;-70
2024/04/26 10:34:18;;;;;;;;;;;19.30;56.80;;;;;;1514439;77;987;-69
2024/04/26 10:36:20;;;;;;;;;;;19.20;56.70;;;;;;1535263;76;817;-69
2024/04/26 10:38:22;;;;;;;;;;;19.30;56.80;;;;;;1521333;75;1563;-67
2024/04/26 10:40:24;;;;;;;;;;;19.20;56.70;;;;;;1535386;75;646;-67
2024/04/26 10:42:26;;;;;;;;;;;19.20;56.70;;;;;;1535263;75;1127;-68
2024/04/26 10:44:28;;;;;;;;;;;19.20;56.70;;;;;;1541479;76;794;-71
2024/04/26 10:46:30;;;;;;;;;;;19.20;56.60;;;;;;1535933;75;1951;-68
2024/04/26 10:48:32;;;;;;;;;;;19.20;56.60;;;;;;1534204;75;675;-67
2024/04/26 10:50:34;;;;;;;;;;;19.20;56.70;;;;;;1534896;75;616;-68
2024/04/26 10:52:36;;;;;;;;;;;19.30;56.70;;;;;;1534582;75;1560;-68
2024/04/26 10:54:40;;;;;;;;;;;19.20;56.70;;;;;;1534641;75;727;-67
2024/04/26 10:56:42;;;;;;;;;;;19.20;56.60;;;;;;1541069;75;1622;-66
2024/04/26 10:58:44;;;;;;;;;;;19.20;56.60;;;;;;1537062;75;735;-67
2024/04/26 11:00:47;;;;;;;;;;;19.20;56.50;;;;;;1546138;75;1145;-68
2024/04/26 11:02:49;;;;;;;;;;;19.20;56.50;;;;;;1555664;74;1408;-68
2024/04/26 11:05:03;;;;;;;;;;;19.20;56.50;;;;;;1552137;74;653;-68
2024/04/26 11:07:12;;;;;;;;;;;19.80;56.90;;;;;;1548821;74;1912;-68
2024/04/26 11:09:14;;;;;;;;;;;19.20;56.50;;;;;;1560780;74;723;-68
2024/04/26 11:11:16;;;;;;;;;;;19.20;56.50;;;;;;1552666;74;1150;-68
2024/04/26 11:13:23;;;;;;;;;;;19.20;56.50;;;;;;1548025;74;722;-67
2024/04/26 11:15:25;;;;;;;;;;;19.20;56.50;;;;;;1560548;74;771;-67
2024/04/26 11:17:27;;;;;;;;;;;19.20;56.50;;;;;;1549766;74;775;-67
2024/04/26 11:19:33;;;;;;;;;;;19.20;56.40;;;;;;1552464;74;702;-69
2024/04/26 11:21:32;;;;;;;;;;;19.30;56.50;;;;;;1552641;74;1607;-68
2024/04/26 11:23:34;;;;;;;;;;;19.20;56.40;;;;;;1562381;74;689;-68
2024/04/26 11:25:36;;;;;;;;;;;19.20;56.40;;;;;;1561836;74;831;-67
2024/04/26 11:27:38;;;;;;;;;;;19.20;56.40;;;;;;1548620;74;1946;-70
2024/04/26 11:29:40;;;;;;;;;;;19.20;56.40;;;;;;1548399;74;732;-68
2024/04/26 11:31:42;;;;;;;;;;;19.20;56.40;;;;;;1551146;74;1191;-68
2024/04/26 11:33:44;;;;;;;;;;;19.20;56.40;;;;;;1553139;74;818;-67
2024/04/26 11:35:45;;;;;;;;;;;19.20;56.40;;;;;;1554304;74;1586;-68
2024/04/26 11:37:47;;;;;;;;;;;19.20;56.40;;;;;;1548600;74;718;-69
2024/04/26 11:39:50;;;;;;;;;;;19.20;56.30;;;;;;1551955;74;766;-68
2024/04/26 11:41:52;;;;;;;;;;;19.20;56.30;;;;;;1555599;74;1265;-69
2024/04/26 11:43:55;;;;;;;;;;;19.20;56.30;;;;;;1553236;74;703;-67
2024/04/26 11:45:57;;;;;;;;;;;19.20;56.30;;;;;;1552799;74;696;-66
2024/04/26 11:47:59;;;;;;;;;;;19.20;56.30;;;;;;1548090;74;1909;-68
2024/04/26 11:50:01;;;;;;;;;;;19.20;56.30;;;;;;1554463;74;1445;-68
2024/04/26 11:52:03;;;;;;;;;;;19.20;56.30;;;;;;1550547;74;1190;-68
2024/04/26 11:54:05;;;;;;;;;;;19.20;56.30;;;;;;1558720;74;752;-68
2024/04/26 11:56:07;;;;;;;;;;;19.10;56.30;;;;;;1555032;74;739;-68
2024/04/26 11:58:09;;;;;;;;;;;19.20;56.30;;;;;;1552015;74;738;-68
2024/04/26 12:00:11;;;;;;;;;;;19.20;56.30;;;;;;1559332;74;666;-68
2024/04/26 12:02:17;;;;;;;;;;;19.20;56.20;;;;;;1557140;74;1087;-69
2024/04/26 12:04:16;;;;;;;;;;;19.20;56.30;;;;;;1541362;74;1647;-69
2024/04/26 12:06:18;;;;;;;;;;;19.20;56.30;;;;;;1556691;74;1938;-68
2024/04/26 12:08:20;;;;;;;;;;;19.20;56.30;;;;;;1547116;74;726;-68